Gulf Bridge — A8JM5 — position and weather

sailwx.info

Track history (hours):
 
Tides and Currents Weather Stations Pressure Air Temp Water Temp Dewpoint Dewpoint Depression Visibility Wind Speed Wind Dir Waves Ship Positions

Gulf Bridge

Last reported at 2018-Jun-18 05:30 UTC. Time now 2018-Jun-18 09:36 UTC.
Position N 01°31' E 103°08'.

Length 213 m; beam 32.2 m; draft 11.5 m.

Type: Cargo ship. MMSI: 636017628.

Date/timePositionNaut miles runAvg speedWind from/ knotsBaromVisibWave heightAir tempDewpointWater temp
2018-Jun-18 05:30N 01°31' E 103°08'5 9.5
2018-Jun-18 04:59N 01°28' E 103°12'5 9.1
2018-Jun-18 04:28N 01°24' E 103°15'510.2
2018-Jun-18 04:00N 01°21' E 103°19'510.0
2018-Jun-18 03:30N 01°17' E 103°22'510.8
2018-Jun-18 03:00N 01°14' E 103°26'611.1
2018-Jun-18 02:31N 01°13' E 103°32'611.0
2018-Jun-18 02:00N 01°12' E 103°37'5 9.2
2018-Jun-18 01:30N 01°13' E 103°41'510.0
2018-Jun-18 00:59N 01°16' E 103°46'1 1.9
2018-Jun-18 00:26N 01°17' E 103°47'0 0.0
2018-Jun-18 00:00N 01°17' E 103°47'0 0.0
2018-Jun-17 23:30N 01°17' E 103°47'0 0.0
2018-Jun-17 22:59N 01°17' E 103°47'0 0.0
2018-Jun-17 22:29N 01°17' E 103°47'0 0.0
2018-Jun-17 22:00N 01°17' E 103°47'0 0.0
2018-Jun-17 21:29N 01°17' E 103°47'0 0.0
2018-Jun-17 21:00N 01°17' E 103°47'0 0.0
2018-Jun-17 20:30N 01°17' E 103°47'0 0.0
2018-Jun-17 19:56N 01°17' E 103°47'0 0.0
2018-Jun-17 19:23N 01°17' E 103°47'0 0.0
2018-Jun-17 18:59N 01°17' E 103°47'0 0.0
2018-Jun-17 18:30N 01°17' E 103°47'0 0.0
2018-Jun-17 17:59N 01°17' E 103°47'0 0.0
2018-Jun-17 17:30N 01°17' E 103°47'0 0.0
2018-Jun-17 17:00N 01°17' E 103°47'0 0.0
2018-Jun-17 16:30N 01°17' E 103°47'0 0.0
2018-Jun-17 16:00N 01°17' E 103°47'0 0.0
2018-Jun-17 15:27N 01°17' E 103°47'0 0.0
2018-Jun-17 15:00N 01°17' E 103°47'0 0.0
2018-Jun-17 14:30N 01°17' E 103°47'0 0.0
2018-Jun-17 14:00N 01°17' E 103°47'0 0.0
2018-Jun-17 13:30N 01°17' E 103°47'0 0.0
2018-Jun-17 13:00N 01°17' E 103°47'0 0.0
2018-Jun-17 12:30N 01°17' E 103°47'0 0.0
2018-Jun-17 12:00N 01°17' E 103°47'0 0.0
2018-Jun-17 11:30N 01°17' E 103°47'0 0.0
2018-Jun-17 11:00N 01°17' E 103°47'0 0.0
2018-Jun-17 10:30N 01°17' E 103°47'0 0.6
2018-Jun-17 10:00N 01°16' E 103°47'4 8.5
2018-Jun-17 09:31N 01°13' E 103°49'611.8
2018-Jun-17 09:00N 01°14' E 103°55'5 9.2
2018-Jun-17 08:30N 01°15' E 103°59'713.1
2018-Jun-17 08:00N 01°17' E 104°05'610.6
2018-Jun-17 07:29N 01°17' E 104°11'712.6
2018-Jun-17 06:58N 01°19' E 104°17'714.9
2018-Jun-17 06:29N 01°22' E 104°23'714.8
2018-Jun-17 06:00N 01°27' E 104°29'1214.7
2018-Jun-17 05:09N 01°36' E 104°38'315.4
2018-Jun-17 04:57N 01°39' E 104°38'  
2018-Jun-12 22:00N 01°27' E 104°31'1018.4
2018-Jun-12 21:29N 01°21' E 104°24'817.3
2018-Jun-12 21:00N 01°17' E 104°16'918.3
2018-Jun-12 20:30N 01°15' E 104°07'918.2
2018-Jun-12 20:00N 01°14' E 103°58'816.9
2018-Jun-12 19:30N 01°11' E 103°50'611.7
2018-Jun-12 19:00N 01°15' E 103°46'1 1.7
2018-Jun-12 18:26N 01°16' E 103°47'0 0.0
2018-Jun-12 17:59N 01°16' E 103°47'0 0.0
2018-Jun-12 17:29N 01°16' E 103°47'0 0.0
2018-Jun-12 16:59N 01°16' E 103°47'0 0.0
2018-Jun-12 16:26N 01°16' E 103°47'0 0.0
2018-Jun-12 15:59N 01°16' E 103°47'0 0.0
2018-Jun-12 15:30N 01°16' E 103°47'0 0.0
2018-Jun-12 14:59N 01°16' E 103°47'0 0.0
2018-Jun-12 14:29N 01°16' E 103°47'0 0.0
2018-Jun-12 14:00N 01°16' E 103°47'0 0.0
2018-Jun-12 13:30N 01°16' E 103°47'0 0.0
2018-Jun-12 12:59N 01°16' E 103°47'0 0.0
2018-Jun-12 12:30N 01°16' E 103°47'0 0.1
2018-Jun-12 11:30N 01°16' E 103°47'2 3.5
2018-Jun-12 11:00N 01°14' E 103°47'0 0.0
2018-Jun-12 10:29N 01°14' E 103°47'0 0.0
2018-Jun-12 09:59N 01°14' E 103°47'0 0.0
2018-Jun-12 09:23N 01°14' E 103°47'0 0.0
2018-Jun-12 08:59N 01°14' E 103°47'0 0.0
2018-Jun-12 08:30N 01°14' E 103°47'0 0.0
2018-Jun-12 07:59N 01°14' E 103°47'0 0.2
2018-Jun-12 07:30N 01°14' E 103°47'3 6.3
2018-Jun-12 07:00N 01°15' E 103°44'5 9.3
2018-Jun-12 06:30N 01°12' E 103°40'4 8.0
2018-Jun-12 06:00N 01°13' E 103°36'0 1.0
2018-Jun-12 05:30N 01°13' E 103°36'2 4.4
2018-Jun-12 05:00N 01°13' E 103°33'3 5.7
2018-Jun-12 04:31N 01°16' E 103°32'510.2
2018-Jun-12 04:00N 01°21' E 103°33'1 1.5
2018-Jun-12 03:07N 01°22' E 103°33'0 0.0
2018-Jun-12 02:52N 01°22' E 103°33'0 0.0
2018-Jun-12 02:19N 01°22' E 103°33'0 0.0
2018-Jun-12 01:58N 01°22' E 103°33'0 0.0
2018-Jun-12 01:25N 01°22' E 103°33'0 0.0
2018-Jun-12 00:54N 01°22' E 103°33'0 0.0
2018-Jun-12 00:26N 01°22' E 103°33'0 0.0
2018-Jun-11 23:58N 01°22' E 103°33'0 0.0
2018-Jun-11 23:24N 01°22' E 103°33'0 0.0
2018-Jun-11 22:55N 01°22' E 103°33'0 0.0
2018-Jun-11 22:16N 01°22' E 103°33'0 0.0
2018-Jun-11 21:55N 01°22' E 103°33'0 0.0
2018-Jun-11 21:13N 01°22' E 103°33'0 0.0
2018-Jun-11 20:58N 01°22' E 103°33'0 0.0
2018-Jun-11 20:30N 01°22' E 103°33'0 0.0
2018-Jun-11 19:55N 01°22' E 103°33'0 0.0
2018-Jun-11 19:27N 01°22' E 103°33'0 0.0
2018-Jun-11 18:54N 01°22' E 103°33'0 0.0
2018-Jun-11 18:04N 01°22' E 103°33'0 0.0
2018-Jun-11 17:49N 01°22' E 103°33'0 0.0
2018-Jun-11 17:24N 01°22' E 103°33'0 0.0
2018-Jun-11 16:55N 01°22' E 103°33'0 0.0
2018-Jun-11 16:30N 01°22' E 103°33'0 0.0
2018-Jun-11 15:59N 01°22' E 103°33'0 0.0
2018-Jun-11 15:31N 01°22' E 103°33'1 2.8
2018-Jun-11 15:00N 01°21' E 103°33'510.6
2018-Jun-11 14:30N 01°16' E 103°33'3 5.3
2018-Jun-11 14:00N 01°13' E 103°32'3 6.2
2018-Jun-11 13:29N 01°10' E 103°30'3 6.4
2018-Jun-11 13:00N 01°11' E 103°27'3 6.3
2018-Jun-11 12:30N 01°12' E 103°24'3 6.3
2018-Jun-11 12:00N 01°14' E 103°21'3 6.2
2018-Jun-11 11:30N 01°16' E 103°19'3 6.7
2018-Jun-11 10:59N 01°18' E 103°16'611.3
2018-Jun-11 10:30N 01°22' E 103°12'  
Track history (hours):
 
Tides and Currents Weather Stations Pressure Air Temp Water Temp Dewpoint Dewpoint Depression Visibility Wind Speed Wind Dir Waves Ship Positions

Gulf Bridge

Last reported at 2018-Jun-18 05:30 UTC. Time now 2018-Jun-18 09:36 UTC.
Position N 01°31' E 103°08'.

Length 213 m; beam 32.2 m; draft 11.5 m.

Type: Cargo ship. MMSI: 636017628.

Date/timePositionNaut miles runAvg speedWind from/ knotsBaromVisibWave heightAir tempDewpointWater temp
2018-Jun-18 05:30N 01°31' E 103°08'5 9.5
2018-Jun-18 04:59N 01°28' E 103°12'5 9.1
2018-Jun-18 04:28N 01°24' E 103°15'510.2
2018-Jun-18 04:00N 01°21' E 103°19'510.0
2018-Jun-18 03:30N 01°17' E 103°22'510.8
2018-Jun-18 03:00N 01°14' E 103°26'611.1
2018-Jun-18 02:31N 01°13' E 103°32'611.0
2018-Jun-18 02:00N 01°12' E 103°37'5 9.2
2018-Jun-18 01:30N 01°13' E 103°41'510.0
2018-Jun-18 00:59N 01°16' E 103°46'1 1.9
2018-Jun-18 00:26N 01°17' E 103°47'0 0.0
2018-Jun-18 00:00N 01°17' E 103°47'0 0.0
2018-Jun-17 23:30N 01°17' E 103°47'0 0.0
2018-Jun-17 22:59N 01°17' E 103°47'0 0.0
2018-Jun-17 22:29N 01°17' E 103°47'0 0.0
2018-Jun-17 22:00N 01°17' E 103°47'0 0.0
2018-Jun-17 21:29N 01°17' E 103°47'0 0.0
2018-Jun-17 21:00N 01°17' E 103°47'0 0.0
2018-Jun-17 20:30N 01°17' E 103°47'0 0.0
2018-Jun-17 19:56N 01°17' E 103°47'0 0.0
2018-Jun-17 19:23N 01°17' E 103°47'0 0.0
2018-Jun-17 18:59N 01°17' E 103°47'0 0.0
2018-Jun-17 18:30N 01°17' E 103°47'0 0.0
2018-Jun-17 17:59N 01°17' E 103°47'0 0.0
2018-Jun-17 17:30N 01°17' E 103°47'0 0.0
2018-Jun-17 17:00N 01°17' E 103°47'0 0.0
2018-Jun-17 16:30N 01°17' E 103°47'0 0.0
2018-Jun-17 16:00N 01°17' E 103°47'0 0.0
2018-Jun-17 15:27N 01°17' E 103°47'0 0.0
2018-Jun-17 15:00N 01°17' E 103°47'0 0.0
2018-Jun-17 14:30N 01°17' E 103°47'0 0.0
2018-Jun-17 14:00N 01°17' E 103°47'0 0.0
2018-Jun-17 13:30N 01°17' E 103°47'0 0.0
2018-Jun-17 13:00N 01°17' E 103°47'0 0.0
2018-Jun-17 12:30N 01°17' E 103°47'0 0.0
2018-Jun-17 12:00N 01°17' E 103°47'0 0.0
2018-Jun-17 11:30N 01°17' E 103°47'0 0.0
2018-Jun-17 11:00N 01°17' E 103°47'0 0.0
2018-Jun-17 10:30N 01°17' E 103°47'0 0.6
2018-Jun-17 10:00N 01°16' E 103°47'4 8.5
2018-Jun-17 09:31N 01°13' E 103°49'611.8
2018-Jun-17 09:00N 01°14' E 103°55'5 9.2
2018-Jun-17 08:30N 01°15' E 103°59'713.1
2018-Jun-17 08:00N 01°17' E 104°05'610.6
2018-Jun-17 07:29N 01°17' E 104°11'712.6
2018-Jun-17 06:58N 01°19' E 104°17'714.9
2018-Jun-17 06:29N 01°22' E 104°23'714.8
2018-Jun-17 06:00N 01°27' E 104°29'1214.7
2018-Jun-17 05:09N 01°36' E 104°38'315.4
2018-Jun-17 04:57N 01°39' E 104°38'  
2018-Jun-12 22:00N 01°27' E 104°31'1018.4
2018-Jun-12 21:29N 01°21' E 104°24'817.3
2018-Jun-12 21:00N 01°17' E 104°16'918.3
2018-Jun-12 20:30N 01°15' E 104°07'918.2
2018-Jun-12 20:00N 01°14' E 103°58'816.9
2018-Jun-12 19:30N 01°11' E 103°50'611.7
2018-Jun-12 19:00N 01°15' E 103°46'1 1.7
2018-Jun-12 18:26N 01°16' E 103°47'0 0.0
2018-Jun-12 17:59N 01°16' E 103°47'0 0.0
2018-Jun-12 17:29N 01°16' E 103°47'0 0.0
2018-Jun-12 16:59N 01°16' E 103°47'0 0.0
2018-Jun-12 16:26N 01°16' E 103°47'0 0.0
2018-Jun-12 15:59N 01°16' E 103°47'0 0.0
2018-Jun-12 15:30N 01°16' E 103°47'0 0.0
2018-Jun-12 14:59N 01°16' E 103°47'0 0.0
2018-Jun-12 14:29N 01°16' E 103°47'0 0.0
2018-Jun-12 14:00N 01°16' E 103°47'0 0.0
2018-Jun-12 13:30N 01°16' E 103°47'0 0.0
2018-Jun-12 12:59N 01°16' E 103°47'0 0.0
2018-Jun-12 12:30N 01°16' E 103°47'0 0.1
2018-Jun-12 11:30N 01°16' E 103°47'2 3.5
2018-Jun-12 11:00N 01°14' E 103°47'0 0.0
2018-Jun-12 10:29N 01°14' E 103°47'0 0.0
2018-Jun-12 09:59N 01°14' E 103°47'0 0.0
2018-Jun-12 09:23N 01°14' E 103°47'0 0.0
2018-Jun-12 08:59N 01°14' E 103°47'0 0.0
2018-Jun-12 08:30N 01°14' E 103°47'0 0.0
2018-Jun-12 07:59N 01°14' E 103°47'0 0.2
2018-Jun-12 07:30N 01°14' E 103°47'3 6.3
2018-Jun-12 07:00N 01°15' E 103°44'5 9.3
2018-Jun-12 06:30N 01°12' E 103°40'4 8.0
2018-Jun-12 06:00N 01°13' E 103°36'0 1.0
2018-Jun-12 05:30N 01°13' E 103°36'2 4.4
2018-Jun-12 05:00N 01°13' E 103°33'3 5.7
2018-Jun-12 04:31N 01°16' E 103°32'510.2
2018-Jun-12 04:00N 01°21' E 103°33'1 1.5
2018-Jun-12 03:07N 01°22' E 103°33'0 0.0
2018-Jun-12 02:52N 01°22' E 103°33'0 0.0
2018-Jun-12 02:19N 01°22' E 103°33'0 0.0
2018-Jun-12 01:58N 01°22' E 103°33'0 0.0
2018-Jun-12 01:25N 01°22' E 103°33'0 0.0
2018-Jun-12 00:54N 01°22' E 103°33'0 0.0
2018-Jun-12 00:26N 01°22' E 103°33'0 0.0
2018-Jun-11 23:58N 01°22' E 103°33'0 0.0
2018-Jun-11 23:24N 01°22' E 103°33'0 0.0
2018-Jun-11 22:55N 01°22' E 103°33'0 0.0
2018-Jun-11 22:16N 01°22' E 103°33'0 0.0
2018-Jun-11 21:55N 01°22' E 103°33'0 0.0
2018-Jun-11 21:13N 01°22' E 103°33'0 0.0
2018-Jun-11 20:58N 01°22' E 103°33'0 0.0
2018-Jun-11 20:30N 01°22' E 103°33'0 0.0
2018-Jun-11 19:55N 01°22' E 103°33'0 0.0
2018-Jun-11 19:27N 01°22' E 103°33'0 0.0
2018-Jun-11 18:54N 01°22' E 103°33'0 0.0
2018-Jun-11 18:04N 01°22' E 103°33'0 0.0
2018-Jun-11 17:49N 01°22' E 103°33'0 0.0
2018-Jun-11 17:24N 01°22' E 103°33'0 0.0
2018-Jun-11 16:55N 01°22' E 103°33'0 0.0
2018-Jun-11 16:30N 01°22' E 103°33'0 0.0
2018-Jun-11 15:59N 01°22' E 103°33'0 0.0
2018-Jun-11 15:31N 01°22' E 103°33'1 2.8
2018-Jun-11 15:00N 01°21' E 103°33'510.6
2018-Jun-11 14:30N 01°16' E 103°33'3 5.3
2018-Jun-11 14:00N 01°13' E 103°32'3 6.2
2018-Jun-11 13:29N 01°10' E 103°30'3 6.4
2018-Jun-11 13:00N 01°11' E 103°27'3 6.3
2018-Jun-11 12:30N 01°12' E 103°24'3 6.3
2018-Jun-11 12:00N 01°14' E 103°21'3 6.2
2018-Jun-11 11:30N 01°16' E 103°19'3 6.7
2018-Jun-11 10:59N 01°18' E 103°16'611.3
2018-Jun-11 10:30N 01°22' E 103°12'  

Dump ship's entire track history